<?xml version="1.0" encoding="UTF-8" standalone="no" ?>
<gpx xmlns="http://www.topografix.com/GPX/1/1" creator="BaseCamp 3.3.2" version="1.1" xmlns:xsi="http://www.w3.org/2001/XMLSchema-instance" xsi:schemaLocation="http://www.topografix.com/GPX/1/1 http://www.topografix.com/GPX/1/1/gpx.xsd">

  <metadata>
    <link href="http://www.garmin.com">
      <text>Garmin International</text>
    </link>
    <time>2012-04-11T14:49:55Z</time>
    <bounds maxlat="52.266953391954303" maxlon="13.96436870098114" minlat="52.22532601095736" minlon="13.884163023903966"/>
  </metadata>

  <trk>
    <name>DT_Strokow_XXL</name>
    <extensions>
      <gpxx:TrackExtension xmlns:gpxx="http://www.garmin.com/xmlschemas/GpxExtensions/v3">
        <gpxx:DisplayColor>Red</gpxx:DisplayColor>
      </gpxx:TrackExtension>
    </extensions>
    <trkseg>
      <trkpt lat="52.251942325383425" lon="13.920994363725185">
        <ele>35.953125</ele>
      </trkpt>
      <trkpt lat="52.252569794654846" lon="13.921619653701782">
        <ele>36.3671875</ele>
      </trkpt>
      <trkpt lat="52.253052592277527" lon="13.922032713890076">
        <ele>36.57421875</ele>
      </trkpt>
      <trkpt lat="52.253074049949646" lon="13.922907114028931">
        <ele>36.57421875</ele>
      </trkpt>
      <trkpt lat="52.253100872039795" lon="13.92342209815979">
        <ele>36.57421875</ele>
      </trkpt>
      <trkpt lat="52.253181338310242" lon="13.923958539962769">
        <ele>36.57421875</ele>
      </trkpt>
      <trkpt lat="52.253192067146301" lon="13.924736380577087">
        <ele>36.57421875</ele>
      </trkpt>
      <trkpt lat="52.253197431564331" lon="13.925809264183044">
        <ele>36.57421875</ele>
      </trkpt>
      <trkpt lat="52.253202795982361" lon="13.926549553871155">
        <ele>36.62109375</ele>
      </trkpt>
      <trkpt lat="52.253133058547974" lon="13.927075266838074">
        <ele>36.671875</ele>
      </trkpt>
      <trkpt lat="52.253063321113586" lon="13.927472233772278">
        <ele>36.6796875</ele>
      </trkpt>
      <trkpt lat="52.252886295318604" lon="13.927810192108154">
        <ele>36.6953125</ele>
      </trkpt>
      <trkpt lat="52.252618074417114" lon="13.928008675575256">
        <ele>36.77734375</ele>
      </trkpt>
      <trkpt lat="52.25273072719574" lon="13.928330540657043">
        <ele>36.98828125</ele>
      </trkpt>
      <trkpt lat="52.253004563972354" lon="13.928516115993261">
        <ele>37.23828125</ele>
      </trkpt>
      <trkpt lat="52.253357609733939" lon="13.928477475419641">
        <ele>37.4453125</ele>
      </trkpt>
      <trkpt lat="52.253610910847783" lon="13.928602114319801">
        <ele>37.6953125</ele>
      </trkpt>
      <trkpt lat="52.253804951906204" lon="13.928911574184895">
        <ele>38.02734375</ele>
      </trkpt>
      <trkpt lat="52.253982815891504" lon="13.929341398179531">
        <ele>38.2109375</ele>
      </trkpt>
      <trkpt lat="52.254476007074118" lon="13.929947409778833">
        <ele>38.359375</ele>
      </trkpt>
      <trkpt lat="52.254828969016671" lon="13.930484689772129">
        <ele>38.3671875</ele>
      </trkpt>
      <trkpt lat="52.256136545911431" lon="13.93246759660542">
        <ele>37.79296875</ele>
      </trkpt>
      <trkpt lat="52.256383895874023" lon="13.932804465293884">
        <ele>37.79296875</ele>
      </trkpt>
      <trkpt lat="52.25671112537384" lon="13.933281898498535">
        <ele>37.86328125</ele>
      </trkpt>
      <trkpt lat="52.256920337677002" lon="13.933582305908203">
        <ele>38.05859375</ele>
      </trkpt>
      <trkpt lat="52.257097363471985" lon="13.93391489982605">
        <ele>38.24609375</ele>
      </trkpt>
      <trkpt lat="52.25771963596344" lon="13.93490195274353">
        <ele>38.265625</ele>
      </trkpt>
      <trkpt lat="52.257896661758423" lon="13.935052156448364">
        <ele>38.1484375</ele>
      </trkpt>
      <trkpt lat="52.258315086364746" lon="13.935272097587585">
        <ele>37.875</ele>
      </trkpt>
      <trkpt lat="52.258797883987427" lon="13.93541157245636">
        <ele>37.79296875</ele>
      </trkpt>
      <trkpt lat="52.259355783462524" lon="13.935508131980896">
        <ele>37.79296875</ele>
      </trkpt>
      <trkpt lat="52.259747385978699" lon="13.935642242431641">
        <ele>37.79296875</ele>
      </trkpt>
      <trkpt lat="52.259988784790039" lon="13.935733437538147">
        <ele>37.79296875</ele>
      </trkpt>
      <trkpt lat="52.260246276855469" lon="13.935996294021606">
        <ele>37.7734375</ele>
      </trkpt>
      <trkpt lat="52.260530591011047" lon="13.936323523521423">
        <ele>37.671875</ele>
      </trkpt>
      <trkpt lat="52.260739803314209" lon="13.93665075302124">
        <ele>37.63671875</ele>
      </trkpt>
      <trkpt lat="52.260562777519226" lon="13.938056230545044">
        <ele>37.36328125</ele>
      </trkpt>
      <trkpt lat="52.260385751724243" lon="13.939000368118286">
        <ele>37.42578125</ele>
      </trkpt>
      <trkpt lat="52.260380387306213" lon="13.939617276191711">
        <ele>37.828125</ele>
      </trkpt>
      <trkpt lat="52.260358929634094" lon="13.940277099609375">
        <ele>38.16015625</ele>
      </trkpt>
      <trkpt lat="52.260273098945618" lon="13.940942287445068">
        <ele>38.0703125</ele>
      </trkpt>
      <trkpt lat="52.260335963219404" lon="13.941270019859076">
        <ele>38.2109375</ele>
        <time>2010-12-31T22:31:23Z</time>
      </trkpt>
      <trkpt lat="52.260614996775985" lon="13.941734964028001">
        <ele>38.8984375</ele>
        <time>2010-12-31T22:32:03Z</time>
      </trkpt>
      <trkpt lat="52.260699989274144" lon="13.941953983157873">
        <ele>39.078125</ele>
        <time>2010-12-31T22:32:19Z</time>
      </trkpt>
      <trkpt lat="52.260843990370631" lon="13.942220024764538">
        <ele>39.44140625</ele>
        <time>2010-12-31T22:32:55Z</time>
      </trkpt>
      <trkpt lat="52.261187983676791" lon="13.942947993054986">
        <ele>40.421875</ele>
        <time>2010-12-31T22:33:53Z</time>
      </trkpt>
      <trkpt lat="52.261052029207349" lon="13.943707980215549">
        <ele>39.53515625</ele>
        <time>2010-12-31T22:34:43Z</time>
      </trkpt>
      <trkpt lat="52.261236011981964" lon="13.944751024246216">
        <ele>39.66015625</ele>
        <time>2010-12-31T22:35:51Z</time>
      </trkpt>
      <trkpt lat="52.261245986446738" lon="13.945489972829819">
        <ele>39.6875</ele>
        <time>2010-12-31T22:36:36Z</time>
      </trkpt>
      <trkpt lat="52.261350005865097" lon="13.945810999721289">
        <ele>39.8203125</ele>
        <time>2010-12-31T22:37:07Z</time>
      </trkpt>
      <trkpt lat="52.261483026668429" lon="13.945990037173033">
        <ele>40.02734375</ele>
        <time>2010-12-31T22:37:25Z</time>
      </trkpt>
      <trkpt lat="52.261763988062739" lon="13.946881033480167">
        <ele>40.546875</ele>
        <time>2010-12-31T22:38:27Z</time>
      </trkpt>
      <trkpt lat="52.26217302493751" lon="13.947653006762266">
        <ele>41.328125</ele>
        <time>2010-12-31T22:39:30Z</time>
      </trkpt>
      <trkpt lat="52.262137988582253" lon="13.947800025343895">
        <ele>41.1015625</ele>
        <time>2010-12-31T22:39:40Z</time>
      </trkpt>
      <trkpt lat="52.261976972222328" lon="13.948854971677065">
        <ele>39.921875</ele>
        <time>2010-12-31T22:40:48Z</time>
      </trkpt>
      <trkpt lat="52.262002034112811" lon="13.949080025777221">
        <ele>39.79296875</ele>
        <time>2010-12-31T22:41:03Z</time>
      </trkpt>
      <trkpt lat="52.262208983302116" lon="13.949491996318102">
        <ele>39.6875</ele>
        <time>2010-12-31T22:41:44Z</time>
      </trkpt>
      <trkpt lat="52.26203765720129" lon="13.949867002665997">
        <ele>39.23046875</ele>
        <time>2010-12-31T22:42:06Z</time>
      </trkpt>
      <trkpt lat="52.262219125404954" lon="13.949998850002885">
        <ele>39.26171875</ele>
        <time>2010-12-31T22:42:19Z</time>
      </trkpt>
      <trkpt lat="52.262669987976551" lon="13.950463039800525">
        <ele>39.359375</ele>
        <time>2010-12-31T22:43:15Z</time>
      </trkpt>
      <trkpt lat="52.263360992074013" lon="13.951001996174455">
        <ele>41.1171875</ele>
        <time>2010-12-31T22:44:32Z</time>
      </trkpt>
      <trkpt lat="52.263662992045283" lon="13.951746979728341">
        <ele>43</ele>
        <time>2010-12-31T22:45:27Z</time>
      </trkpt>
      <trkpt lat="52.263751002028584" lon="13.951988965272903">
        <ele>43.75</ele>
        <time>2010-12-31T22:45:44Z</time>
      </trkpt>
      <trkpt lat="52.263887040317059" lon="13.9523880276829">
        <ele>45.078125</ele>
        <time>2010-12-31T22:46:13Z</time>
      </trkpt>
      <trkpt lat="52.263985024765134" lon="13.952716011554003">
        <ele>46.0703125</ele>
        <time>2010-12-31T22:46:38Z</time>
      </trkpt>
      <trkpt lat="52.264140006154776" lon="13.953219009563327">
        <ele>46.94140625</ele>
        <time>2010-12-31T22:47:14Z</time>
      </trkpt>
      <trkpt lat="52.264160038903356" lon="13.953608013689518">
        <ele>47.421875</ele>
        <time>2010-12-31T22:47:39Z</time>
      </trkpt>
      <trkpt lat="52.264209995046258" lon="13.953944966197014">
        <ele>48.0390625</ele>
        <time>2010-12-31T22:48:02Z</time>
      </trkpt>
      <trkpt lat="52.264302028343081" lon="13.954630019143224">
        <ele>49.015625</ele>
        <time>2010-12-31T22:48:46Z</time>
      </trkpt>
      <trkpt lat="52.264360031113029" lon="13.954932019114494">
        <ele>49.75390625</ele>
        <time>2010-12-31T22:49:06Z</time>
      </trkpt>
      <trkpt lat="52.264437982812524" lon="13.955367961898446">
        <ele>51.02734375</ele>
        <time>2010-12-31T22:49:35Z</time>
      </trkpt>
      <trkpt lat="52.264379980042577" lon="13.956142030656338">
        <ele>48.625</ele>
        <time>2010-12-31T22:50:24Z</time>
      </trkpt>
      <trkpt lat="52.264496991410851" lon="13.956917021423578">
        <ele>47.83203125</ele>
        <time>2010-12-31T22:51:14Z</time>
      </trkpt>
      <trkpt lat="52.264649039134383" lon="13.956946022808552">
        <ele>49.14453125</ele>
        <time>2010-12-31T22:51:30Z</time>
      </trkpt>
      <trkpt lat="52.26504173129797" lon="13.958156118169427">
        <ele>46.3359375</ele>
      </trkpt>
      <trkpt lat="52.265616646036506" lon="13.959502838551998">
        <ele>44.24609375</ele>
      </trkpt>
      <trkpt lat="52.266191560775042" lon="13.960391152650118">
        <ele>44.2421875</ele>
      </trkpt>
      <trkpt lat="52.266953391954303" lon="13.961018202826381">
        <ele>41.8984375</ele>
      </trkpt>
      <trkpt lat="52.266945848241448" lon="13.961042845621705">
        <ele>41.8828125</ele>
      </trkpt>
      <trkpt lat="52.266919612884521" lon="13.961471915245056">
        <ele>41.3984375</ele>
      </trkpt>
      <trkpt lat="52.266812324523926" lon="13.961917161941528">
        <ele>41.0078125</ele>
      </trkpt>
      <trkpt lat="52.266587018966675" lon="13.962163925170898">
        <ele>40.78125</ele>
      </trkpt>
      <trkpt lat="52.26621150970459" lon="13.962319493293762">
        <ele>40.55078125</ele>
      </trkpt>
      <trkpt lat="52.265385389328003" lon="13.962807655334473">
        <ele>40.21875</ele>
      </trkpt>
      <trkpt lat="52.264822125434875" lon="13.96311342716217">
        <ele>40.1796875</ele>
      </trkpt>
      <trkpt lat="52.264419794082642" lon="13.963354825973511">
        <ele>40.0234375</ele>
      </trkpt>
      <trkpt lat="52.264033555984497" lon="13.963601589202881">
        <ele>39.76953125</ele>
      </trkpt>
      <trkpt lat="52.263422012329102" lon="13.963505029678345">
        <ele>40.2734375</ele>
      </trkpt>
      <trkpt lat="52.263164520263672" lon="13.963564038276672">
        <ele>40.3671875</ele>
      </trkpt>
      <trkpt lat="52.262831926345825" lon="13.963660597801208">
        <ele>40.45703125</ele>
      </trkpt>
      <trkpt lat="52.262257933616638" lon="13.963767886161804">
        <ele>40.6953125</ele>
      </trkpt>
      <trkpt lat="52.261683940887451" lon="13.963993191719055">
        <ele>40.77734375</ele>
      </trkpt>
      <trkpt lat="52.261254787445068" lon="13.964170217514038">
        <ele>40.82421875</ele>
      </trkpt>
      <trkpt lat="52.260809540748596" lon="13.96436870098114">
        <ele>40.71484375</ele>
      </trkpt>
      <trkpt lat="52.260557413101196" lon="13.964020013809204">
        <ele>41.14453125</ele>
      </trkpt>
      <trkpt lat="52.260026335716248" lon="13.963891267776489">
        <ele>41.3203125</ele>
      </trkpt>
      <trkpt lat="52.259774208068848" lon="13.963794708251953">
        <ele>41.3671875</ele>
      </trkpt>
      <trkpt lat="52.259538173675537" lon="13.963676691055298">
        <ele>41.26953125</ele>
      </trkpt>
      <trkpt lat="52.259119749069214" lon="13.963510394096375">
        <ele>41.05859375</ele>
      </trkpt>
      <trkpt lat="52.258781790733337" lon="13.963392376899719">
        <ele>40.92578125</ele>
      </trkpt>
      <trkpt lat="52.258594036102295" lon="13.963183164596558">
        <ele>40.953125</ele>
      </trkpt>
      <trkpt lat="52.258647680282593" lon="13.962802290916443">
        <ele>41.1875</ele>
      </trkpt>
      <trkpt lat="52.258046865463257" lon="13.961048126220703">
        <ele>42.05859375</ele>
      </trkpt>
      <trkpt lat="52.258325815200806" lon="13.960281014442444">
        <ele>41.359375</ele>
      </trkpt>
      <trkpt lat="52.258567214012146" lon="13.959589004516602">
        <ele>40.671875</ele>
      </trkpt>
      <trkpt lat="52.25872814655304" lon="13.959326148033142">
        <ele>40.203125</ele>
      </trkpt>
      <trkpt lat="52.258937358856201" lon="13.959036469459534">
        <ele>39.7578125</ele>
      </trkpt>
      <trkpt lat="52.259082198143005" lon="13.958719968795776">
        <ele>39.28515625</ele>
      </trkpt>
      <trkpt lat="52.259286046028137" lon="13.95813524723053">
        <ele>38.51953125</ele>
      </trkpt>
      <trkpt lat="52.25950950756669" lon="13.957780357450247">
        <ele>38.359375</ele>
      </trkpt>
      <trkpt lat="52.259742021560669" lon="13.957411050796509">
        <ele>38.03515625</ele>
      </trkpt>
      <trkpt lat="52.259940505027771" lon="13.957094550132751">
        <ele>37.6640625</ele>
      </trkpt>
      <trkpt lat="52.26020872592926" lon="13.956713676452637">
        <ele>37.33203125</ele>
      </trkpt>
      <trkpt lat="52.260423302650452" lon="13.957368135452271">
        <ele>38.84375</ele>
      </trkpt>
      <trkpt lat="52.260637879371643" lon="13.957684636116028">
        <ele>39.75</ele>
      </trkpt>
      <trkpt lat="52.260863184928894" lon="13.957947492599487">
        <ele>40.56640625</ele>
      </trkpt>
      <trkpt lat="52.261775135993958" lon="13.95862877368927">
        <ele>41.88671875</ele>
      </trkpt>
      <trkpt lat="52.262198925018311" lon="13.958757519721985">
        <ele>42.125</ele>
      </trkpt>
      <trkpt lat="52.262413501739502" lon="13.95837128162384">
        <ele>41.7109375</ele>
      </trkpt>
      <trkpt lat="52.262826561927795" lon="13.957695364952087">
        <ele>40.78125</ele>
      </trkpt>
      <trkpt lat="52.262681722640991" lon="13.956735134124756">
        <ele>38.9765625</ele>
      </trkpt>
      <trkpt lat="52.262381315231323" lon="13.954852223396301">
        <ele>38.41796875</ele>
      </trkpt>
      <trkpt lat="52.2622150182724" lon="13.953773975372314">
        <ele>38.19921875</ele>
      </trkpt>
      <trkpt lat="52.262123823165894" lon="13.953205347061157">
        <ele>38.078125</ele>
      </trkpt>
      <trkpt lat="52.26210705935955" lon="13.95310090854764">
        <ele>38.0546875</ele>
      </trkpt>
      <trkpt lat="52.261801958084106" lon="13.951102495193481">
        <ele>38.2578125</ele>
      </trkpt>
      <trkpt lat="52.2617107629776" lon="13.950571417808533">
        <ele>38.55078125</ele>
      </trkpt>
      <trkpt lat="52.261569695547223" lon="13.949646139517426">
        <ele>39.0078125</ele>
      </trkpt>
      <trkpt lat="52.261569695547223" lon="13.949646139517426">
        <ele>39.0078125</ele>
      </trkpt>
      <trkpt lat="52.261329889297485" lon="13.94813597202301">
        <ele>38.97265625</ele>
      </trkpt>
      <trkpt lat="52.261238694190979" lon="13.9476478099823">
        <ele>38.77734375</ele>
      </trkpt>
      <trkpt lat="52.261136770248413" lon="13.947170376777649">
        <ele>38.70703125</ele>
      </trkpt>
      <trkpt lat="52.260911464691162" lon="13.946333527565002">
        <ele>38.875</ele>
      </trkpt>
      <trkpt lat="52.260745167732239" lon="13.945684432983398">
        <ele>38.69921875</ele>
      </trkpt>
      <trkpt lat="52.26046085357666" lon="13.944633007049561">
        <ele>37.765625</ele>
      </trkpt>
      <trkpt lat="52.260412573814392" lon="13.944455981254578">
        <ele>37.578125</ele>
      </trkpt>
      <trkpt lat="52.260138988494873" lon="13.943286538124084">
        <ele>36.94140625</ele>
      </trkpt>
      <trkpt lat="52.260096073150635" lon="13.942819833755493">
        <ele>36.8984375</ele>
      </trkpt>
      <trkpt lat="52.260117530822754" lon="13.942315578460693">
        <ele>37.23046875</ele>
      </trkpt>
      <trkpt lat="52.260246276855469" lon="13.94116222858429">
        <ele>38.0078125</ele>
      </trkpt>
      <trkpt lat="52.260358929634094" lon="13.940277099609375">
        <ele>38.16015625</ele>
      </trkpt>
      <trkpt lat="52.260380387306213" lon="13.939821124076843">
        <ele>37.96484375</ele>
      </trkpt>
      <trkpt lat="52.260369658470154" lon="13.939118385314941">
        <ele>37.4921875</ele>
      </trkpt>
      <trkpt lat="52.260562777519226" lon="13.938056230545044">
        <ele>37.36328125</ele>
      </trkpt>
      <trkpt lat="52.260782718658447" lon="13.936972618103027">
        <ele>37.5859375</ele>
      </trkpt>
      <trkpt lat="52.260530591011047" lon="13.936323523521423">
        <ele>37.671875</ele>
      </trkpt>
      <trkpt lat="52.260246276855469" lon="13.935996294021606">
        <ele>37.7734375</ele>
      </trkpt>
      <trkpt lat="52.259988784790039" lon="13.935733437538147">
        <ele>37.79296875</ele>
      </trkpt>
      <trkpt lat="52.259747385978699" lon="13.935642242431641">
        <ele>37.79296875</ele>
      </trkpt>
      <trkpt lat="52.259355783462524" lon="13.935508131980896">
        <ele>37.79296875</ele>
      </trkpt>
      <trkpt lat="52.258797883987427" lon="13.93541157245636">
        <ele>37.79296875</ele>
      </trkpt>
      <trkpt lat="52.258315086364746" lon="13.935272097587585">
        <ele>37.875</ele>
      </trkpt>
      <trkpt lat="52.258084416389465" lon="13.935196995735168">
        <ele>38.0234375</ele>
      </trkpt>
      <trkpt lat="52.257864475250244" lon="13.934987783432007">
        <ele>38.171875</ele>
      </trkpt>
      <trkpt lat="52.257204651832581" lon="13.934097290039063">
        <ele>38.296875</ele>
      </trkpt>
      <trkpt lat="52.256920337677002" lon="13.933582305908203">
        <ele>38.05859375</ele>
      </trkpt>
      <trkpt lat="52.25671112537384" lon="13.933281898498535">
        <ele>37.86328125</ele>
      </trkpt>
      <trkpt lat="52.256383895874023" lon="13.932804465293884">
        <ele>37.79296875</ele>
      </trkpt>
      <trkpt lat="52.256196141242981" lon="13.932541608810425">
        <ele>37.79296875</ele>
      </trkpt>
      <trkpt lat="52.255885004997253" lon="13.932107090950012">
        <ele>37.79296875</ele>
      </trkpt>
      <trkpt lat="52.255536317825317" lon="13.931597471237183">
        <ele>37.87890625</ele>
      </trkpt>
      <trkpt lat="52.254897952079773" lon="13.930647969245911">
        <ele>38.29296875</ele>
      </trkpt>
      <trkpt lat="52.254565358161926" lon="13.930073976516724">
        <ele>38.35546875</ele>
      </trkpt>
      <trkpt lat="52.25398063659668" lon="13.929349780082703">
        <ele>38.2109375</ele>
      </trkpt>
      <trkpt lat="52.253798246383667" lon="13.92890989780426">
        <ele>38.0234375</ele>
      </trkpt>
      <trkpt lat="52.253813752904534" lon="13.928406983613968">
        <ele>37.69921875</ele>
      </trkpt>
      <trkpt lat="52.253930512815714" lon="13.927955701947212">
        <ele>37.48046875</ele>
      </trkpt>
      <trkpt lat="52.254020366817713" lon="13.927174927666783">
        <ele>37.078125</ele>
      </trkpt>
      <trkpt lat="52.254056325182319" lon="13.926637647673488">
        <ele>36.796875</ele>
      </trkpt>
      <trkpt lat="52.254065293818712" lon="13.925763666629791">
        <ele>36.57421875</ele>
      </trkpt>
      <trkpt lat="52.254060767591" lon="13.925140472128987">
        <ele>36.57421875</ele>
      </trkpt>
      <trkpt lat="52.253836216405034" lon="13.92441694624722">
        <ele>36.57421875</ele>
      </trkpt>
      <trkpt lat="52.253638571128249" lon="13.923793751746416">
        <ele>36.57421875</ele>
      </trkpt>
      <trkpt lat="52.253557769581676" lon="13.923435509204865">
        <ele>36.57421875</ele>
      </trkpt>
      <trkpt lat="52.25331075489521" lon="13.922210577875376">
        <ele>36.57421875</ele>
      </trkpt>
      <trkpt lat="52.253252333030105" lon="13.921709172427654">
        <ele>36.57421875</ele>
      </trkpt>
      <trkpt lat="52.253122078254819" lon="13.920713402330875">
        <ele>36.57421875</ele>
      </trkpt>
      <trkpt lat="52.253059213981032" lon="13.920183330774307">
        <ele>36.57421875</ele>
      </trkpt>
      <trkpt lat="52.252897527068853" lon="13.919753506779671">
        <ele>36.57421875</ele>
      </trkpt>
      <trkpt lat="52.252547163516283" lon="13.919295016676188">
        <ele>36.57421875</ele>
      </trkpt>
      <trkpt lat="52.252358486875892" lon="13.919072980061173">
        <ele>36.57421875</ele>
      </trkpt>
      <trkpt lat="52.2522890008986" lon="13.918965021148324">
        <ele>36.57421875</ele>
        <time>2010-12-31T22:03:31Z</time>
      </trkpt>
      <trkpt lat="52.252151034772396" lon="13.918179972097278">
        <ele>36.57421875</ele>
        <time>2010-12-31T22:04:30Z</time>
      </trkpt>
      <trkpt lat="52.25274195894599" lon="13.917231978848577">
        <ele>36.57421875</ele>
        <time>2010-12-31T22:05:53Z</time>
      </trkpt>
      <trkpt lat="52.253249986097217" lon="13.916323967278004">
        <ele>36.703125</ele>
        <time>2010-12-31T22:07:09Z</time>
      </trkpt>
      <trkpt lat="52.254281966015697" lon="13.914329996332526">
        <ele>37.48828125</ele>
        <time>2010-12-31T22:09:50Z</time>
      </trkpt>
      <trkpt lat="52.254873979836702" lon="13.913336992263794">
        <ele>37.37109375</ele>
        <time>2010-12-31T22:11:15Z</time>
      </trkpt>
      <trkpt lat="52.255439003929496" lon="13.912339964881539">
        <ele>36.73046875</ele>
        <time>2010-12-31T22:12:39Z</time>
      </trkpt>
      <trkpt lat="52.25596496835351" lon="13.911336986348033">
        <ele>36.8984375</ele>
        <time>2010-12-31T22:14:01Z</time>
      </trkpt>
      <trkpt lat="52.255738992244005" lon="13.910714965313673">
        <ele>37.2265625</ele>
        <time>2010-12-31T22:14:46Z</time>
      </trkpt>
      <trkpt lat="52.255539000034332" lon="13.910192018374801">
        <ele>36.9765625</ele>
        <time>2010-12-31T22:15:25Z</time>
      </trkpt>
      <trkpt lat="52.255412014201283" lon="13.909172024577856">
        <ele>36.3515625</ele>
        <time>2010-12-31T22:16:29Z</time>
      </trkpt>
      <trkpt lat="52.255355017259717" lon="13.908307012170553">
        <ele>35.921875</ele>
        <time>2010-12-31T22:17:24Z</time>
      </trkpt>
      <trkpt lat="52.255096016451716" lon="13.905398994684219">
        <ele>34.19921875</ele>
        <time>2010-12-31T22:20:24Z</time>
      </trkpt>
      <trkpt lat="52.255048993974924" lon="13.90503304079175">
        <ele>34.125</ele>
        <time>2010-12-31T22:20:47Z</time>
      </trkpt>
      <trkpt lat="52.254944974556565" lon="13.902669008821249">
        <ele>33.83203125</ele>
        <time>2010-12-31T22:23:13Z</time>
      </trkpt>
      <trkpt lat="52.254761997610331" lon="13.900191988795996">
        <ele>33.625</ele>
        <time>2010-12-31T22:25:47Z</time>
      </trkpt>
      <trkpt lat="52.254688991233706" lon="13.899622019380331">
        <ele>33.73828125</ele>
        <time>2010-12-31T22:26:23Z</time>
      </trkpt>
      <trkpt lat="52.254553036764264" lon="13.898824984207749">
        <ele>34.515625</ele>
        <time>2010-12-31T22:27:14Z</time>
      </trkpt>
      <trkpt lat="52.254569968208671" lon="13.897283971309662">
        <ele>36.17578125</ele>
        <time>2010-12-31T22:28:49Z</time>
      </trkpt>
      <trkpt lat="52.254509031772614" lon="13.896813997998834">
        <ele>36.44921875</ele>
        <time>2010-12-31T22:29:19Z</time>
      </trkpt>
      <trkpt lat="52.254442982375622" lon="13.896520966663957">
        <ele>36.5078125</ele>
        <time>2010-12-31T22:29:39Z</time>
      </trkpt>
      <trkpt lat="52.254486987367272" lon="13.895901963114738">
        <ele>36.5546875</ele>
        <time>2010-12-31T22:30:18Z</time>
      </trkpt>
      <trkpt lat="52.254513977095485" lon="13.894646018743515">
        <ele>36.57421875</ele>
        <time>2010-12-31T22:31:36Z</time>
      </trkpt>
      <trkpt lat="52.254104018211365" lon="13.894552979618311">
        <ele>36.57421875</ele>
        <time>2010-12-31T22:32:17Z</time>
      </trkpt>
      <trkpt lat="52.251920029520988" lon="13.894437979906797">
        <ele>36.57421875</ele>
        <time>2010-12-31T22:35:58Z</time>
      </trkpt>
      <trkpt lat="52.251563966274261" lon="13.89457100071013">
        <ele>36.57421875</ele>
        <time>2010-12-31T22:36:35Z</time>
      </trkpt>
      <trkpt lat="52.249859003350139" lon="13.895631982013583">
        <ele>35.6953125</ele>
        <time>2010-12-31T22:39:37Z</time>
      </trkpt>
      <trkpt lat="52.248317990452051" lon="13.896691035479307">
        <ele>35.66015625</ele>
        <time>2010-12-31T22:42:25Z</time>
      </trkpt>
      <trkpt lat="52.247486002743244" lon="13.897253964096308">
        <ele>35.6484375</ele>
        <time>2010-12-31T22:43:56Z</time>
      </trkpt>
      <trkpt lat="52.247120970860124" lon="13.897322025150061">
        <ele>35.66015625</ele>
        <time>2010-12-31T22:44:36Z</time>
      </trkpt>
      <trkpt lat="52.246749401092529" lon="13.897410035133362">
        <ele>35.66015625</ele>
      </trkpt>
      <trkpt lat="52.246438264846802" lon="13.897415399551392">
        <ele>35.66015625</ele>
      </trkpt>
      <trkpt lat="52.246111035346985" lon="13.897318840026855">
        <ele>35.66015625</ele>
      </trkpt>
      <trkpt lat="52.245794534683228" lon="13.897399306297302">
        <ele>35.66015625</ele>
      </trkpt>
      <trkpt lat="52.245215177536011" lon="13.897683620452881">
        <ele>35.66015625</ele>
      </trkpt>
      <trkpt lat="52.244614362716675" lon="13.898069858551025">
        <ele>35.66015625</ele>
      </trkpt>
      <trkpt lat="52.243900895118713" lon="13.898509740829468">
        <ele>35.66015625</ele>
      </trkpt>
      <trkpt lat="52.243391275405884" lon="13.898810148239136">
        <ele>35.66015625</ele>
      </trkpt>
      <trkpt lat="52.243144512176514" lon="13.898922801017761">
        <ele>35.66015625</ele>
      </trkpt>
      <trkpt lat="52.242763638496399" lon="13.898901343345642">
        <ele>35.66015625</ele>
      </trkpt>
      <trkpt lat="52.242184281349182" lon="13.898842334747314">
        <ele>35.66015625</ele>
      </trkpt>
      <trkpt lat="52.24172830581665" lon="13.898718953132629">
        <ele>35.66015625</ele>
      </trkpt>
      <trkpt lat="52.241331338882446" lon="13.898348808288574">
        <ele>35.71875</ele>
      </trkpt>
      <trkpt lat="52.241111397743225" lon="13.898144960403442">
        <ele>35.7734375</ele>
      </trkpt>
      <trkpt lat="52.240810990333557" lon="13.898069858551025">
        <ele>35.7421875</ele>
      </trkpt>
      <trkpt lat="52.240646034479141" lon="13.899632999673486">
        <ele>35.66015625</ele>
        <time>2010-12-31T23:05:05Z</time>
      </trkpt>
      <trkpt lat="52.240747036412358" lon="13.899042997509241">
        <ele>35.66015625</ele>
        <time>2010-12-31T23:05:43Z</time>
      </trkpt>
      <trkpt lat="52.240767991170287" lon="13.898905031383038">
        <ele>35.66015625</ele>
        <time>2010-12-31T23:05:52Z</time>
      </trkpt>
      <trkpt lat="52.240940993651748" lon="13.896898990496993">
        <ele>36.01953125</ele>
        <time>2010-12-31T23:07:56Z</time>
      </trkpt>
      <trkpt lat="52.240931019186974" lon="13.895311960950494">
        <ele>36.015625</ele>
        <time>2010-12-31T23:09:35Z</time>
      </trkpt>
      <trkpt lat="52.24047495983541" lon="13.892884980887175">
        <ele>35.66015625</ele>
        <time>2010-12-31T23:12:13Z</time>
      </trkpt>
      <trkpt lat="52.239237958565354" lon="13.889636993408203">
        <ele>35.66015625</ele>
        <time>2010-12-31T23:16:09Z</time>
      </trkpt>
      <trkpt lat="52.237796019762754" lon="13.887201966717839">
        <ele>35.5625</ele>
        <time>2010-12-31T23:19:38Z</time>
      </trkpt>
      <trkpt lat="52.237639026716352" lon="13.88724597170949">
        <ele>35.578125</ele>
        <time>2010-12-31T23:19:59Z</time>
      </trkpt>
      <trkpt lat="52.23744498565793" lon="13.886947995051742">
        <ele>35.30078125</ele>
        <time>2010-12-31T23:20:28Z</time>
      </trkpt>
      <trkpt lat="52.236916003748775" lon="13.886088011786342">
        <ele>34.78125</ele>
        <time>2010-12-31T23:21:43Z</time>
      </trkpt>
      <trkpt lat="52.236875016242266" lon="13.885996984317899">
        <ele>34.75</ele>
        <time>2010-12-31T23:21:50Z</time>
      </trkpt>
      <trkpt lat="52.236653985455632" lon="13.885495997965336">
        <ele>35.06640625</ele>
        <time>2010-12-31T23:22:28Z</time>
      </trkpt>
      <trkpt lat="52.235989971086383" lon="13.885011021047831">
        <ele>35.43359375</ele>
        <time>2010-12-31T23:23:42Z</time>
      </trkpt>
      <trkpt lat="52.235785033553839" lon="13.8849469833076">
        <ele>35.50390625</ele>
        <time>2010-12-31T23:24:03Z</time>
      </trkpt>
      <trkpt lat="52.235067961737514" lon="13.884683959186077">
        <ele>35.65234375</ele>
        <time>2010-12-31T23:25:17Z</time>
      </trkpt>
      <trkpt lat="52.234316021203995" lon="13.884439039975405">
        <ele>36.0703125</ele>
        <time>2010-12-31T23:26:34Z</time>
      </trkpt>
      <trkpt lat="52.233945960178971" lon="13.884228989481926">
        <ele>36.3359375</ele>
        <time>2010-12-31T23:27:17Z</time>
      </trkpt>
      <trkpt lat="52.233806988224387" lon="13.88434499502182">
        <ele>36.3828125</ele>
        <time>2010-12-31T23:27:38Z</time>
      </trkpt>
      <trkpt lat="52.233629040420055" lon="13.884932985529304">
        <ele>36.265625</ele>
        <time>2010-12-31T23:28:19Z</time>
      </trkpt>
      <trkpt lat="52.233131993561983" lon="13.885316038504243">
        <ele>36.2109375</ele>
        <time>2010-12-31T23:29:14Z</time>
      </trkpt>
      <trkpt lat="52.232752041891217" lon="13.885544026270509">
        <ele>36.265625</ele>
        <time>2010-12-31T23:29:55Z</time>
      </trkpt>
      <trkpt lat="52.231975961476564" lon="13.886074014008045">
        <ele>36.51953125</ele>
        <time>2010-12-31T23:31:21Z</time>
      </trkpt>
      <trkpt lat="52.231155959889293" lon="13.886775998398662">
        <ele>36.39453125</ele>
        <time>2010-12-31T23:32:54Z</time>
      </trkpt>
      <trkpt lat="52.230249959975481" lon="13.88769599609077">
        <ele>36.14453125</ele>
        <time>2010-12-31T23:34:41Z</time>
      </trkpt>
      <trkpt lat="52.229746961966157" lon="13.88825599104166">
        <ele>35.76953125</ele>
        <time>2010-12-31T23:35:43Z</time>
      </trkpt>
      <trkpt lat="52.22915000282228" lon="13.88945996761322">
        <ele>35.5703125</ele>
        <time>2010-12-31T23:37:18Z</time>
      </trkpt>
      <trkpt lat="52.228904999792576" lon="13.889642022550106">
        <ele>35.40625</ele>
        <time>2010-12-31T23:37:47Z</time>
      </trkpt>
      <trkpt lat="52.228657985106111" lon="13.889128966256976">
        <ele>35.24609375</ele>
        <time>2010-12-31T23:38:28Z</time>
      </trkpt>
      <trkpt lat="52.228586990386248" lon="13.888941965997219">
        <ele>35.19921875</ele>
        <time>2010-12-31T23:38:42Z</time>
      </trkpt>
      <trkpt lat="52.228359002619982" lon="13.887914009392262">
        <ele>35.421875</ele>
        <time>2010-12-31T23:39:49Z</time>
      </trkpt>
      <trkpt lat="52.228305023163557" lon="13.887444036081433">
        <ele>35.625</ele>
        <time>2010-12-31T23:40:19Z</time>
      </trkpt>
      <trkpt lat="52.228126991540194" lon="13.887097025290132">
        <ele>35.66015625</ele>
        <time>2010-12-31T23:40:48Z</time>
      </trkpt>
      <trkpt lat="52.228062031790614" lon="13.886401997879148">
        <ele>35.66015625</ele>
        <time>2010-12-31T23:41:33Z</time>
      </trkpt>
      <trkpt lat="52.227509999647737" lon="13.886289009824395">
        <ele>35.60546875</ele>
        <time>2010-12-31T23:42:28Z</time>
      </trkpt>
      <trkpt lat="52.227339008823037" lon="13.886232012882829">
        <ele>35.59375</ele>
        <time>2010-12-31T23:42:46Z</time>
      </trkpt>
      <trkpt lat="52.226896025240421" lon="13.886216003447771">
        <ele>35.55078125</ele>
        <time>2010-12-31T23:43:32Z</time>
      </trkpt>
      <trkpt lat="52.226687986403704" lon="13.886245004832745">
        <ele>35.51171875</ele>
        <time>2010-12-31T23:43:53Z</time>
      </trkpt>
      <trkpt lat="52.22532601095736" lon="13.886046018451452">
        <ele>35.62109375</ele>
        <time>2010-12-31T23:46:11Z</time>
      </trkpt>
      <trkpt lat="52.22532601095736" lon="13.886046018451452">
        <ele>35.62109375</ele>
        <time>2010-12-31T23:46:11Z</time>
      </trkpt>
      <trkpt lat="52.22532601095736" lon="13.886046018451452">
        <ele>35.62109375</ele>
        <time>2010-12-31T23:46:27Z</time>
      </trkpt>
      <trkpt lat="52.22577603533864" lon="13.88621399179101">
        <ele>35.5078125</ele>
        <time>2010-12-31T23:47:13Z</time>
      </trkpt>
      <trkpt lat="52.227111021056771" lon="13.886179961264133">
        <ele>35.5859375</ele>
        <time>2010-12-31T23:49:27Z</time>
      </trkpt>
      <trkpt lat="52.227828009054065" lon="13.886353969573975">
        <ele>35.6484375</ele>
        <time>2010-12-31T23:50:41Z</time>
      </trkpt>
      <trkpt lat="52.228069994598627" lon="13.886395962908864">
        <ele>35.66015625</ele>
        <time>2010-12-31T23:51:06Z</time>
      </trkpt>
      <trkpt lat="52.228106036782265" lon="13.886797036975622">
        <ele>35.66015625</ele>
        <time>2010-12-31T23:51:31Z</time>
      </trkpt>
      <trkpt lat="52.228338969871402" lon="13.887627013027668">
        <ele>35.546875</ele>
        <time>2010-12-31T23:52:30Z</time>
      </trkpt>
      <trkpt lat="52.228528987616301" lon="13.8886200170964">
        <ele>35.2109375</ele>
        <time>2010-12-31T23:53:35Z</time>
      </trkpt>
      <trkpt lat="52.228795029222965" lon="13.889406993985176">
        <ele>35.3359375</ele>
        <time>2010-12-31T23:54:32Z</time>
      </trkpt>
      <trkpt lat="52.22915000282228" lon="13.88945996761322">
        <ele>35.5703125</ele>
        <time>2010-12-31T23:55:20Z</time>
      </trkpt>
      <trkpt lat="52.229425013065338" lon="13.888927968218923">
        <ele>35.6484375</ele>
        <time>2010-12-31T23:56:03Z</time>
      </trkpt>
      <trkpt lat="52.230249959975481" lon="13.88769599609077">
        <ele>36.14453125</ele>
        <time>2010-12-31T23:57:56Z</time>
      </trkpt>
      <trkpt lat="52.231404986232519" lon="13.886508028954268">
        <ele>36.39453125</ele>
        <time>2011-01-01T00:00:13Z</time>
      </trkpt>
      <trkpt lat="52.232332024723291" lon="13.885661959648132">
        <ele>36.4375</ele>
        <time>2011-01-01T00:02:00Z</time>
      </trkpt>
      <trkpt lat="52.232571998611093" lon="13.885578978806734">
        <ele>36.3359375</ele>
        <time>2011-01-01T00:02:25Z</time>
      </trkpt>
      <trkpt lat="52.233568020164967" lon="13.884990988299251">
        <ele>36.2578125</ele>
        <time>2011-01-01T00:04:12Z</time>
      </trkpt>
      <trkpt lat="52.233806988224387" lon="13.88434499502182">
        <ele>36.3828125</ele>
        <time>2011-01-01T00:04:59Z</time>
      </trkpt>
      <trkpt lat="52.233885023742914" lon="13.884163023903966">
        <ele>36.37890625</ele>
        <time>2011-01-01T00:05:14Z</time>
      </trkpt>
      <trkpt lat="52.234060959890485" lon="13.884324040263891">
        <ele>36.25</ele>
        <time>2011-01-01T00:05:37Z</time>
      </trkpt>
      <trkpt lat="52.235067961737514" lon="13.884683959186077">
        <ele>35.65234375</ele>
        <time>2011-01-01T00:07:20Z</time>
      </trkpt>
      <trkpt lat="52.235624017193913" lon="13.884947989135981">
        <ele>35.52734375</ele>
        <time>2011-01-01T00:08:19Z</time>
      </trkpt>
      <trkpt lat="52.236419040709734" lon="13.885239008814096">
        <ele>35.23828125</ele>
        <time>2011-01-01T00:09:41Z</time>
      </trkpt>
      <trkpt lat="52.23664996214211" lon="13.885507984086871">
        <ele>35.05859375</ele>
        <time>2011-01-01T00:10:10Z</time>
      </trkpt>
      <trkpt lat="52.237592004239559" lon="13.887036005035043">
        <ele>35.42578125</ele>
        <time>2011-01-01T00:12:24Z</time>
      </trkpt>
      <trkpt lat="52.237940020859241" lon="13.887321995571256">
        <ele>35.63671875</ele>
        <time>2011-01-01T00:13:04Z</time>
      </trkpt>
      <trkpt lat="52.238157028332353" lon="13.887692978605628">
        <ele>35.66015625</ele>
        <time>2011-01-01T00:13:35Z</time>
      </trkpt>
      <trkpt lat="52.239866014569998" lon="13.890968961641192">
        <ele>35.453125</ele>
        <time>2011-01-01T00:18:00Z</time>
      </trkpt>
      <trkpt lat="52.240877039730549" lon="13.894768981263041">
        <ele>35.98046875</ele>
        <time>2011-01-01T00:22:17Z</time>
      </trkpt>
      <trkpt lat="52.240907968953252" lon="13.897431995719671">
        <ele>35.9140625</ele>
        <time>2011-01-01T00:25:00Z</time>
      </trkpt>
      <trkpt lat="52.24055802449584" lon="13.90020296908915">
        <ele>35.66015625</ele>
        <time>2011-01-01T00:27:55Z</time>
      </trkpt>
      <trkpt lat="52.240105988457799" lon="13.903414998203516">
        <ele>35.66015625</ele>
        <time>2011-01-01T00:31:18Z</time>
      </trkpt>
      <trkpt lat="52.240124009549618" lon="13.904693992808461">
        <ele>35.66015625</ele>
        <time>2011-01-01T00:32:38Z</time>
      </trkpt>
      <trkpt lat="52.240444030612707" lon="13.905582977458835">
        <ele>35.6953125</ele>
        <time>2011-01-01T00:33:41Z</time>
      </trkpt>
      <trkpt lat="52.240368006750941" lon="13.905300004407763">
        <ele>35.66015625</ele>
        <time>2011-01-01T00:34:04Z</time>
      </trkpt>
      <trkpt lat="52.240400025621057" lon="13.905758997425437">
        <ele>35.6640625</ele>
        <time>2011-01-01T00:34:33Z</time>
      </trkpt>
      <trkpt lat="52.240392984822392" lon="13.907294981181622">
        <ele>35.984375</ele>
        <time>2011-01-01T00:36:07Z</time>
      </trkpt>
      <trkpt lat="52.240390973165631" lon="13.907749028876424">
        <ele>36.28125</ele>
        <time>2011-01-01T00:36:36Z</time>
      </trkpt>
      <trkpt lat="52.240576967597008" lon="13.909852970391512">
        <ele>36.671875</ele>
        <time>2011-01-01T00:38:47Z</time>
      </trkpt>
      <trkpt lat="52.240778971463442" lon="13.911843001842499">
        <ele>36.57421875</ele>
        <time>2011-01-01T00:40:51Z</time>
      </trkpt>
      <trkpt lat="52.241219021379948" lon="13.914610035717487">
        <ele>36.34375</ele>
        <time>2011-01-01T00:43:47Z</time>
      </trkpt>
      <trkpt lat="52.241452038288116" lon="13.915802026167512">
        <ele>36.796875</ele>
        <time>2011-01-01T00:45:05Z</time>
      </trkpt>
      <trkpt lat="52.241836013272405" lon="13.916704002767801">
        <ele>37.3359375</ele>
        <time>2011-01-01T00:46:13Z</time>
      </trkpt>
      <trkpt lat="52.242366671562195" lon="13.917537331581116">
        <ele>36.71484375</ele>
      </trkpt>
      <trkpt lat="52.242570519447327" lon="13.917902112007141">
        <ele>36.57421875</ele>
      </trkpt>
      <trkpt lat="52.242752909660339" lon="13.918336629867554">
        <ele>36.57421875</ele>
      </trkpt>
      <trkpt lat="52.242854833602905" lon="13.919055461883545">
        <ele>36.57421875</ele>
      </trkpt>
      <trkpt lat="52.242865562438965" lon="13.920021057128906">
        <ele>36.57421875</ele>
      </trkpt>
      <trkpt lat="52.242892384529114" lon="13.920965194702148">
        <ele>36.5390625</ele>
      </trkpt>
      <trkpt lat="52.243155241012573" lon="13.923502564430237">
        <ele>36.5546875</ele>
      </trkpt>
      <trkpt lat="52.243214249610901" lon="13.924645185470581">
        <ele>36.54296875</ele>
      </trkpt>
      <trkpt lat="52.243257164955139" lon="13.925106525421143">
        <ele>36.35546875</ele>
      </trkpt>
      <trkpt lat="52.243310809135437" lon="13.925589323043823">
        <ele>36.04296875</ele>
      </trkpt>
      <trkpt lat="52.243348360061646" lon="13.926072120666504">
        <ele>35.75390625</ele>
      </trkpt>
      <trkpt lat="52.243380546569824" lon="13.927193284034729">
        <ele>35.66015625</ele>
      </trkpt>
      <trkpt lat="52.243407368659973" lon="13.928577303886414">
        <ele>36.2890625</ele>
      </trkpt>
      <trkpt lat="52.243305444717407" lon="13.929365873336792">
        <ele>36.57421875</ele>
      </trkpt>
      <trkpt lat="52.243257164955139" lon="13.929730653762817">
        <ele>36.57421875</ele>
      </trkpt>
      <trkpt lat="52.243423461914063" lon="13.929837942123413">
        <ele>36.57421875</ele>
      </trkpt>
      <trkpt lat="52.243713140487671" lon="13.930197358131409">
        <ele>36.57421875</ele>
      </trkpt>
      <trkpt lat="52.243933081626892" lon="13.930374383926392">
        <ele>36.57421875</ele>
      </trkpt>
      <trkpt lat="52.244517803192139" lon="13.93140435218811">
        <ele>36.79296875</ele>
      </trkpt>
      <trkpt lat="52.244694828987122" lon="13.931715488433838">
        <ele>36.953125</ele>
      </trkpt>
      <trkpt lat="52.244952321052551" lon="13.932139277458191">
        <ele>37.3046875</ele>
      </trkpt>
      <trkpt lat="52.245295643806458" lon="13.932691812515259">
        <ele>37.64453125</ele>
      </trkpt>
      <trkpt lat="52.245531678199768" lon="13.933019042015076">
        <ele>37.76171875</ele>
      </trkpt>
      <trkpt lat="52.245907187461853" lon="13.933544754981995">
        <ele>37.78515625</ele>
      </trkpt>
      <trkpt lat="52.246116399765015" lon="13.933802247047424">
        <ele>37.79296875</ele>
      </trkpt>
      <trkpt lat="52.246427536010742" lon="13.934226036071777">
        <ele>37.79296875</ele>
      </trkpt>
      <trkpt lat="52.246685028076172" lon="13.934027552604675">
        <ele>37.79296875</ele>
      </trkpt>
      <trkpt lat="52.246663570404053" lon="13.934531807899475">
        <ele>37.79296875</ele>
      </trkpt>
      <trkpt lat="52.246438264846802" lon="13.935073614120483">
        <ele>37.79296875</ele>
      </trkpt>
      <trkpt lat="52.24622368812561" lon="13.93566370010376">
        <ele>37.79296875</ele>
      </trkpt>
      <trkpt lat="52.246019840240479" lon="13.936221599578857">
        <ele>37.79296875</ele>
      </trkpt>
      <trkpt lat="52.246363162994385" lon="13.936597108840942">
        <ele>37.79296875</ele>
      </trkpt>
      <trkpt lat="52.246577739715576" lon="13.936843872070313">
        <ele>37.79296875</ele>
      </trkpt>
      <trkpt lat="52.24698007106781" lon="13.937214016914368">
        <ele>37.79296875</ele>
      </trkpt>
      <trkpt lat="52.247393131256104" lon="13.937589526176453">
        <ele>37.79296875</ele>
      </trkpt>
      <trkpt lat="52.247667387127876" lon="13.937887251377106">
        <ele>37.79296875</ele>
      </trkpt>
      <trkpt lat="52.247956395149231" lon="13.938201069831848">
        <ele>37.79296875</ele>
      </trkpt>
      <trkpt lat="52.248380184173584" lon="13.938587307929993">
        <ele>37.79296875</ele>
      </trkpt>
      <trkpt lat="52.248643040657043" lon="13.938839435577393">
        <ele>37.8671875</ele>
      </trkpt>
      <trkpt lat="52.249495983123779" lon="13.938844799995422">
        <ele>37.8671875</ele>
      </trkpt>
      <trkpt lat="52.249769568443298" lon="13.938930630683899">
        <ele>37.92578125</ele>
      </trkpt>
      <trkpt lat="52.250198721885681" lon="13.939091563224792">
        <ele>38.015625</ele>
      </trkpt>
      <trkpt lat="52.250552773475647" lon="13.939252495765686">
        <ele>38.02734375</ele>
      </trkpt>
      <trkpt lat="52.251067757606506" lon="13.93964946269989">
        <ele>37.98046875</ele>
      </trkpt>
      <trkpt lat="52.2512286901474" lon="13.939037919044495">
        <ele>37.83203125</ele>
      </trkpt>
      <trkpt lat="52.251341342926025" lon="13.938544392585754">
        <ele>37.79296875</ele>
      </trkpt>
      <trkpt lat="52.251620292663574" lon="13.937519788742065">
        <ele>37.78125</ele>
      </trkpt>
      <trkpt lat="52.251738309860229" lon="13.93714964389801">
        <ele>37.79296875</ele>
      </trkpt>
      <trkpt lat="52.251947522163391" lon="13.936597108840942">
        <ele>37.79296875</ele>
      </trkpt>
      <trkpt lat="52.252103090286255" lon="13.936200141906738">
        <ele>37.79296875</ele>
      </trkpt>
      <trkpt lat="52.252398133277893" lon="13.935492038726807">
        <ele>37.59375</ele>
      </trkpt>
      <trkpt lat="52.252677083015442" lon="13.934848308563232">
        <ele>37.17578125</ele>
      </trkpt>
      <trkpt lat="52.252902388572693" lon="13.934381604194641">
        <ele>36.890625</ele>
      </trkpt>
      <trkpt lat="52.253100872039795" lon="13.934006094932556">
        <ele>37.01953125</ele>
      </trkpt>
      <trkpt lat="52.253369092941284" lon="13.933593034744263">
        <ele>37.19921875</ele>
      </trkpt>
      <trkpt lat="52.253701686859131" lon="13.932927846908569">
        <ele>37.41796875</ele>
      </trkpt>
      <trkpt lat="52.253197431564331" lon="13.932225108146667">
        <ele>37.0859375</ele>
      </trkpt>
      <trkpt lat="52.252805829048157" lon="13.931972980499268">
        <ele>36.9296875</ele>
      </trkpt>
      <trkpt lat="52.252494692802429" lon="13.931769132614136">
        <ele>37.140625</ele>
      </trkpt>
      <trkpt lat="52.252135276794434" lon="13.931500911712646">
        <ele>37.3984375</ele>
      </trkpt>
      <trkpt lat="52.251936793327332" lon="13.931280970573425">
        <ele>37.49609375</ele>
      </trkpt>
      <trkpt lat="52.251631021499634" lon="13.930685520172119">
        <ele>37.53125</ele>
      </trkpt>
      <trkpt lat="52.251373529434204" lon="13.930073976516724">
        <ele>37.2109375</ele>
      </trkpt>
      <trkpt lat="52.251116037368774" lon="13.929961323738098">
        <ele>37.02734375</ele>
      </trkpt>
      <trkpt lat="52.250960469245911" lon="13.929467797279358">
        <ele>36.7578125</ele>
      </trkpt>
      <trkpt lat="52.251175045967102" lon="13.929103016853333">
        <ele>36.62109375</ele>
      </trkpt>
      <trkpt lat="52.251175045967102" lon="13.928706049919128">
        <ele>36.57421875</ele>
      </trkpt>
      <trkpt lat="52.25197970867157" lon="13.926967978477478">
        <ele>36.57421875</ele>
      </trkpt>
      <trkpt lat="52.251368165016174" lon="13.925707340240479">
        <ele>36.57421875</ele>
      </trkpt>
      <trkpt lat="52.251142859458923" lon="13.925331830978394">
        <ele>36.57421875</ele>
      </trkpt>
      <trkpt lat="52.250584959983826" lon="13.924376964569092">
        <ele>36.26171875</ele>
      </trkpt>
      <trkpt lat="52.250880002975464" lon="13.923615217208862">
        <ele>35.76171875</ele>
      </trkpt>
      <trkpt lat="52.251405715942383" lon="13.922220468521118">
        <ele>35.66015625</ele>
      </trkpt>
      <trkpt lat="52.251845262944698" lon="13.921229308471084">
        <ele>35.890625</ele>
      </trkpt>
    </trkseg>
  </trk>

</gpx>
